sensor_id;sensor_type;location;lat;lon;timestamp;pressure;altitude;pressure_sealevel;temperature;humidity
45369;BME280;51342;55.250;37.668;2023-05-19T00:03:52;100174.47;;;12.55;68.32
45369;BME280;51342;55.250;37.668;2023-05-19T00:06:26;100171.94;;;12.56;68.03
45369;BME280;51342;55.250;37.668;2023-05-19T00:09:02;100169.28;;;12.55;68.55
45369;BME280;51342;55.250;37.668;2023-05-19T00:11:36;100172.56;;;12.52;68.16
45369;BME280;51342;55.250;37.668;2023-05-19T00:14:09;100169.81;;;12.49;68.80
45369;BME280;51342;55.250;37.668;2023-05-19T00:16:41;100172.50;;;12.51;69.01
45369;BME280;51342;55.250;37.668;2023-05-19T00:19:13;100170.78;;;12.51;68.93
45369;BME280;51342;55.250;37.668;2023-05-19T00:21:44;100168.13;;;12.50;68.79
45369;BME280;51342;55.250;37.668;2023-05-19T00:24:15;100177.69;;;12.51;68.85
45369;BME280;51342;55.250;37.668;2023-05-19T00:26:47;100166.41;;;12.50;69.40
45369;BME280;51342;55.250;37.668;2023-05-19T00:29:18;100185.56;;;12.52;69.29
45369;BME280;51342;55.250;37.668;2023-05-19T00:31:50;100183.97;;;12.54;68.86
45369;BME280;51342;55.250;37.668;2023-05-19T00:34:21;100182.41;;;12.58;68.77
45369;BME280;51342;55.250;37.668;2023-05-19T00:36:53;100184.31;;;12.60;69.24
45369;BME280;51342;55.250;37.668;2023-05-19T00:39:24;100189.66;;;12.63;68.71
45369;BME280;51342;55.250;37.668;2023-05-19T00:41:55;100186.91;;;12.60;69.03
45369;BME280;51342;55.250;37.668;2023-05-19T00:44:27;100184.13;;;12.57;69.38
45369;BME280;51342;55.250;37.668;2023-05-19T00:46:58;100186.56;;;12.54;69.95
45369;BME280;51342;55.250;37.668;2023-05-19T00:49:30;100188.06;;;12.51;69.74
45369;BME280;51342;55.250;37.668;2023-05-19T00:52:01;100190.59;;;12.49;69.70
45369;BME280;51342;55.250;37.668;2023-05-19T00:54:33;100188.81;;;12.48;69.62
45369;BME280;51342;55.250;37.668;2023-05-19T00:57:05;100193.88;;;12.46;69.69
45369;BME280;51342;55.250;37.668;2023-05-19T00:59:37;100198.09;;;12.44;70.04
45369;BME280;51342;55.250;37.668;2023-05-19T01:02:08;100198.09;;;12.44;70.14
45369;BME280;51342;55.250;37.668;2023-05-19T01:04:40;100196.31;;;12.43;70.22
45369;BME280;51342;55.250;37.668;2023-05-19T01:07:14;100192.63;;;12.40;69.88
45369;BME280;51342;55.250;37.668;2023-05-19T01:09:46;100198.19;;;12.46;70.44
45369;BME280;51342;55.250;37.668;2023-05-19T01:12:17;100194.69;;;12.45;70.16
45369;BME280;51342;55.250;37.668;2023-05-19T01:14:49;100196.41;;;12.45;71.19
45369;BME280;51342;55.250;37.668;2023-05-19T01:17:47;100199.53;;;12.39;71.49
45369;BME280;51342;55.250;37.668;2023-05-19T01:20:31;100195.31;;;12.41;71.90
45369;BME280;51342;55.250;37.668;2023-05-19T01:23:38;100199.81;;;12.44;71.55
45369;BME280;51342;55.250;37.668;2023-05-19T01:32:15;100202.56;;;12.62;71.08
45369;BME280;51342;55.250;37.668;2023-05-19T01:34:50;100200.38;;;12.69;71.43
45369;BME280;51342;55.250;37.668;2023-05-19T01:37:23;100204.88;;;12.72;72.42
45369;BME280;51342;55.250;37.668;2023-05-19T01:39:55;100194.38;;;12.70;72.42
45369;BME280;51342;55.250;37.668;2023-05-19T01:42:28;100202.63;;;12.78;72.62
45369;BME280;51342;55.250;37.668;2023-05-19T01:45:00;100202.78;;;12.81;73.18
45369;BME280;51342;55.250;37.668;2023-05-19T01:47:34;100205.63;;;12.86;73.52
45369;BME280;51342;55.250;37.668;2023-05-19T01:50:08;100208.41;;;12.89;73.30
45369;BME280;51342;55.250;37.668;2023-05-19T01:52:40;100210.34;;;12.93;73.05
45369;BME280;51342;55.250;37.668;2023-05-19T01:55:12;100198.44;;;12.96;73.89
45369;BME280;51342;55.250;37.668;2023-05-19T01:57:50;100200.50;;;13.02;73.85
45369;BME280;51342;55.250;37.668;2023-05-19T02:00:52;100203.00;;;13.00;73.94
45369;BME280;51342;55.250;37.668;2023-05-19T02:12:28;100204.03;;;13.19;74.37
45369;BME280;51342;55.250;37.668;2023-05-19T02:15:14;100208.63;;;13.23;74.70
45369;BME280;51342;55.250;37.668;2023-05-19T02:17:47;100203.00;;;13.32;74.42
45369;BME280;51342;55.250;37.668;2023-05-19T02:20:21;100205.88;;;13.36;74.30
45369;BME280;51342;55.250;37.668;2023-05-19T02:22:53;100202.69;;;13.42;74.71
45369;BME280;51342;55.250;37.668;2023-05-19T02:25:24;100202.88;;;13.45;74.59
45369;BME280;51342;55.250;37.668;2023-05-19T02:27:57;100208.41;;;13.51;75.03
45369;BME280;51342;55.250;37.668;2023-05-19T02:30:28;100200.81;;;13.56;74.87
45369;BME280;51342;55.250;37.668;2023-05-19T02:33:04;100206.22;;;13.59;74.92
45369;BME280;51342;55.250;37.668;2023-05-19T02:35:36;100209.06;;;13.63;74.77
45369;BME280;51342;55.250;37.668;2023-05-19T02:38:07;100209.38;;;13.69;74.99
45369;BME280;51342;55.250;37.668;2023-05-19T02:40:39;100200.13;;;13.74;75.33
45369;BME280;51342;55.250;37.668;2023-05-19T02:43:10;100200.25;;;13.77;75.58
45369;BME280;51342;55.250;37.668;2023-05-19T02:45:42;100205.00;;;13.85;75.62
45369;BME280;51342;55.250;37.668;2023-05-19T02:48:13;100204.41;;;13.90;76.01
45369;BME280;51342;55.250;37.668;2023-05-19T02:50:44;100209.84;;;13.95;75.58
45369;BME280;51342;55.250;37.668;2023-05-19T02:53:16;100205.63;;;13.97;75.66
45369;BME280;51342;55.250;37.668;2023-05-19T02:55:47;100212.16;;;14.06;75.90
45369;BME280;51342;55.250;37.668;2023-05-19T02:58:18;100213.22;;;14.10;75.78
45369;BME280;51342;55.250;37.668;2023-05-19T03:00:50;100215.19;;;14.14;74.91
45369;BME280;51342;55.250;37.668;2023-05-19T03:03:22;100209.09;;;14.14;74.63
45369;BME280;51342;55.250;37.668;2023-05-19T03:05:53;100219.06;;;14.22;75.12
45369;BME280;51342;55.250;37.668;2023-05-19T03:08:25;100226.16;;;14.25;75.20
45369;BME280;51342;55.250;37.668;2023-05-19T03:10:56;100224.69;;;14.30;75.45
45369;BME280;51342;55.250;37.668;2023-05-19T03:13:27;100227.41;;;14.33;75.32
45369;BME280;51342;55.250;37.668;2023-05-19T03:15:59;100228.47;;;14.37;75.53
45369;BME280;51342;55.250;37.668;2023-05-19T03:18:32;100234.81;;;14.42;75.23
45369;BME280;51342;55.250;37.668;2023-05-19T03:21:03;100236.72;;;14.46;75.31
45369;BME280;51342;55.250;37.668;2023-05-19T03:23:34;100235.22;;;14.49;74.93
45369;BME280;51342;55.250;37.668;2023-05-19T03:26:06;100236.28;;;14.53;74.55
45369;BME280;51342;55.250;37.668;2023-05-19T03:28:37;100231.97;;;14.53;74.33
45369;BME280;51342;55.250;37.668;2023-05-19T03:31:09;100234.69;;;14.56;74.48
45369;BME280;51342;55.250;37.668;2023-05-19T03:33:42;100244.47;;;14.61;73.97
45369;BME280;51342;55.250;37.668;2023-05-19T03:36:14;100239.19;;;14.59;74.23
45369;BME280;51342;55.250;37.668;2023-05-19T03:38:46;100249.00;;;14.65;73.45
45369;BME280;51342;55.250;37.668;2023-05-19T03:41:17;100243.88;;;14.66;74.03
45369;BME280;51342;55.250;37.668;2023-05-19T03:43:48;100246.31;;;14.63;73.53
45369;BME280;51342;55.250;37.668;2023-05-19T03:46:20;100249.72;;;14.62;73.64
45369;BME280;51342;55.250;37.668;2023-05-19T03:49:00;100245.34;;;14.61;73.90
45369;BME280;51342;55.250;37.668;2023-05-19T03:51:51;100251.16;;;14.55;72.98
45369;BME280;51342;55.250;37.668;2023-05-19T03:54:34;100255.53;;;14.56;73.03
45369;BME280;51342;55.250;37.668;2023-05-19T03:57:06;100264.81;;;14.51;72.65
45369;BME280;51342;55.250;37.668;2023-05-19T03:59:37;100271.25;;;14.42;72.95
45369;BME280;51342;55.250;37.668;2023-05-19T04:02:11;100273.31;;;14.31;72.38
45369;BME280;51342;55.250;37.668;2023-05-19T04:04:43;100279.59;;;14.18;72.71
45369;BME280;51342;55.250;37.668;2023-05-19T04:07:15;100275.63;;;14.09;72.50
45369;BME280;51342;55.250;37.668;2023-05-19T04:09:49;100292.63;;;14.02;71.70
45369;BME280;51342;55.250;37.668;2023-05-19T04:12:21;100278.78;;;13.87;71.21
45369;BME280;51342;55.250;37.668;2023-05-19T04:14:53;100291.38;;;13.79;71.46
45369;BME280;51342;55.250;37.668;2023-05-19T04:17:24;100290.31;;;13.75;70.71
45369;BME280;51342;55.250;37.668;2023-05-19T04:19:56;100297.78;;;13.69;70.54
45369;BME280;51342;55.250;37.668;2023-05-19T04:22:28;100300.88;;;13.62;70.37
45369;BME280;51342;55.250;37.668;2023-05-19T04:25:00;100294.09;;;13.49;70.49
45369;BME280;51342;55.250;37.668;2023-05-19T04:27:34;100303.38;;;13.44;71.01
45369;BME280;51342;55.250;37.668;2023-05-19T04:30:13;100299.84;;;13.44;70.94
45369;BME280;51342;55.250;37.668;2023-05-19T04:32:52;100308.56;;;13.44;71.22
45369;BME280;51342;55.250;37.668;2023-05-19T04:35:24;100304.16;;;13.43;70.64
45369;BME280;51342;55.250;37.668;2023-05-19T04:37:57;100310.72;;;13.37;70.16
45369;BME280;51342;55.250;37.668;2023-05-19T04:40:34;100313.78;;;13.30;70.46
45369;BME280;51342;55.250;37.668;2023-05-19T04:43:08;100309.22;;;13.25;70.52
45369;BME280;51342;55.250;37.668;2023-05-19T04:45:42;100305.66;;;13.23;70.48
45369;BME280;51342;55.250;37.668;2023-05-19T04:48:16;100309.06;;;13.22;70.54
45369;BME280;51342;55.250;37.668;2023-05-19T04:50:49;100306.25;;;13.19;70.03
45369;BME280;51342;55.250;37.668;2023-05-19T04:53:23;100311.16;;;13.15;70.38
45369;BME280;51342;55.250;37.668;2023-05-19T04:55:57;100316.38;;;13.15;70.71
45369;BME280;51342;55.250;37.668;2023-05-19T04:58:29;100314.84;;;13.18;70.22
45369;BME280;51342;55.250;37.668;2023-05-19T05:01:03;100313.88;;;13.16;69.86
45369;BME280;51342;55.250;37.668;2023-05-19T05:03:36;100321.75;;;13.18;70.30
45369;BME280;51342;55.250;37.668;2023-05-19T05:06:10;100318.34;;;13.19;69.25
45369;BME280;51342;55.250;37.668;2023-05-19T05:08:43;100331.41;;;13.20;69.47
45369;BME280;51342;55.250;37.668;2023-05-19T05:11:17;100329.63;;;13.19;68.86
45369;BME280;51342;55.250;37.668;2023-05-19T05:13:52;100332.22;;;13.19;68.96
45369;BME280;51342;55.250;37.668;2023-05-19T05:16:26;100334.66;;;13.16;68.00
45369;BME280;51342;55.250;37.668;2023-05-19T05:19:00;100328.31;;;13.11;68.47
45369;BME280;51342;55.250;37.668;2023-05-19T05:21:35;100328.38;;;13.13;68.02
45369;BME280;51342;55.250;37.668;2023-05-19T05:24:10;100328.53;;;13.16;68.14
45369;BME280;51342;55.250;37.668;2023-05-19T05:26:46;100337.34;;;13.18;68.10
45369;BME280;51342;55.250;37.668;2023-05-19T05:29:19;100334.81;;;13.19;68.35
45369;BME280;51342;55.250;37.668;2023-05-19T05:31:53;100340.25;;;13.22;68.21
45369;BME280;51342;55.250;37.668;2023-05-19T05:34:27;100345.44;;;13.22;67.90
45369;BME280;51342;55.250;37.668;2023-05-19T05:37:00;100342.63;;;13.19;68.13
45369;BME280;51342;55.250;37.668;2023-05-19T05:39:34;100348.63;;;13.18;68.16
45369;BME280;51342;55.250;37.668;2023-05-19T05:42:09;100349.31;;;13.16;67.53
45369;BME280;51342;55.250;37.668;2023-05-19T05:44:43;100360.47;;;13.13;67.45
45369;BME280;51342;55.250;37.668;2023-05-19T05:47:16;100357.22;;;13.03;67.12
45369;BME280;51342;55.250;37.668;2023-05-19T05:49:51;100366.91;;;12.90;67.56
45369;BME280;51342;55.250;37.668;2023-05-19T05:52:28;100363.06;;;12.84;68.08
45369;BME280;51342;55.250;37.668;2023-05-19T05:55:03;100364.94;;;12.86;68.23
45369;BME280;51342;55.250;37.668;2023-05-19T05:57:39;100363.88;;;12.83;67.73
45369;BME280;51342;55.250;37.668;2023-05-19T06:00:17;100364.84;;;12.85;67.29
45369;BME280;51342;55.250;37.668;2023-05-19T06:02:59;100369.25;;;12.86;67.91
45369;BME280;51342;55.250;37.668;2023-05-19T06:05:37;100368.19;;;12.82;67.52
45369;BME280;51342;55.250;37.668;2023-05-19T06:08:12;100376.13;;;12.85;67.55
45369;BME280;51342;55.250;37.668;2023-05-19T06:10:46;100374.28;;;12.83;67.55
45369;BME280;51342;55.250;37.668;2023-05-19T06:13:22;100378.72;;;12.85;68.16
45369;BME280;51342;55.250;37.668;2023-05-19T06:15:59;100374.72;;;12.90;67.82
45369;BME280;51342;55.250;37.668;2023-05-19T06:18:38;100374.16;;;12.96;67.86
45369;BME280;51342;55.250;37.668;2023-05-19T06:21:13;100380.53;;;13.01;67.17
45369;BME280;51342;55.250;37.668;2023-05-19T06:23:47;100387.16;;;12.96;66.91
45369;BME280;51342;55.250;37.668;2023-05-19T06:26:24;100387.63;;;12.89;66.77
45369;BME280;51342;55.250;37.668;2023-05-19T06:28:57;100384.00;;;12.87;66.76
45369;BME280;51342;55.250;37.668;2023-05-19T06:31:32;100395.41;;;12.89;67.03
45369;BME280;51342;55.250;37.668;2023-05-19T06:34:15;100393.50;;;12.86;66.61
45369;BME280;51342;55.250;37.668;2023-05-19T06:36:52;100399.34;;;12.82;67.08
45369;BME280;51342;55.250;37.668;2023-05-19T06:39:27;100396.75;;;12.82;67.08
45369;BME280;51342;55.250;37.668;2023-05-19T06:42:02;100402.84;;;12.83;67.34
45369;BME280;51342;55.250;37.668;2023-05-19T06:45:01;100407.84;;;12.80;67.17
45369;BME280;51342;55.250;37.668;2023-05-19T06:47:36;100407.03;;;12.81;66.92
45369;BME280;51342;55.250;37.668;2023-05-19T06:50:14;100412.22;;;12.81;67.27
45369;BME280;51342;55.250;37.668;2023-05-19T06:52:49;100410.63;;;12.83;67.52
45369;BME280;51342;55.250;37.668;2023-05-19T06:55:24;100425.75;;;12.90;67.27
45369;BME280;51342;55.250;37.668;2023-05-19T06:57:58;100421.09;;;12.84;67.58
45369;BME280;51342;55.250;37.668;2023-05-19T07:00:34;100417.41;;;12.81;67.53
45369;BME280;51342;55.250;37.668;2023-05-19T07:03:13;100419.03;;;12.79;67.67
45369;BME280;51342;55.250;37.668;2023-05-19T07:05:51;100423.31;;;12.78;67.96
45369;BME280;51342;55.250;37.668;2023-05-19T07:08:29;100421.44;;;12.76;68.02
45369;BME280;51342;55.250;37.668;2023-05-19T07:11:07;100418.94;;;12.77;67.98
45369;BME280;51342;55.250;37.668;2023-05-19T07:13:43;100425.94;;;12.78;67.87
45369;BME280;51342;55.250;37.668;2023-05-19T07:16:22;100424.84;;;12.74;67.69
45369;BME280;51342;55.250;37.668;2023-05-19T07:19:02;100425.03;;;12.78;67.84
45369;BME280;51342;55.250;37.668;2023-05-19T07:21:40;100430.22;;;12.78;68.41
45369;BME280;51342;55.250;37.668;2023-05-19T07:24:19;100428.59;;;12.80;69.08
45369;BME280;51342;55.250;37.668;2023-05-19T07:26:55;100427.72;;;12.79;68.35
45369;BME280;51342;55.250;37.668;2023-05-19T07:29:32;100432.66;;;12.89;68.56
45369;BME280;51342;55.250;37.668;2023-05-19T07:32:09;100427.53;;;12.91;68.34
45369;BME280;51342;55.250;37.668;2023-05-19T07:34:43;100432.22;;;12.96;68.35
45369;BME280;51342;55.250;37.668;2023-05-19T07:37:20;100428.72;;;12.96;67.54
45369;BME280;51342;55.250;37.668;2023-05-19T07:39:54;100426.94;;;12.95;67.61
45369;BME280;51342;55.250;37.668;2023-05-19T07:42:31;100433.91;;;12.96;67.60
45369;BME280;51342;55.250;37.668;2023-05-19T07:45:07;100421.81;;;12.96;67.87
45369;BME280;51342;55.250;37.668;2023-05-19T07:47:46;100425.50;;;13.00;67.43
45369;BME280;51342;55.250;37.668;2023-05-19T07:50:23;100437.59;;;12.99;67.10
45369;BME280;51342;55.250;37.668;2023-05-19T07:53:01;100429.03;;;12.87;67.07
45369;BME280;51342;55.250;37.668;2023-05-19T07:55:37;100436.75;;;12.86;67.50
45369;BME280;51342;55.250;37.668;2023-05-19T07:58:14;100442.97;;;12.88;67.85
45369;BME280;51342;55.250;37.668;2023-05-19T08:00:51;100439.44;;;12.87;67.43
45369;BME280;51342;55.250;37.668;2023-05-19T08:03:31;100441.59;;;12.80;67.54
45369;BME280;51342;55.250;37.668;2023-05-19T08:06:12;100438.19;;;12.81;67.53
45369;BME280;51342;55.250;37.668;2023-05-19T08:08:49;100441.06;;;12.85;67.32
45369;BME280;51342;55.250;37.668;2023-05-19T08:11:25;100443.38;;;12.81;67.84
45369;BME280;51342;55.250;37.668;2023-05-19T08:14:02;100440.97;;;12.84;68.42
45369;BME280;51342;55.250;37.668;2023-05-19T08:16:43;100435.34;;;12.91;67.89
45369;BME280;51342;55.250;37.668;2023-05-19T08:19:17;100449.84;;;13.02;68.00
45369;BME280;51342;55.250;37.668;2023-05-19T08:21:56;100436.06;;;13.03;68.47
45369;BME280;51342;55.250;37.668;2023-05-19T08:24:38;100438.84;;;13.06;67.42
45369;BME280;51342;55.250;37.668;2023-05-19T08:27:17;100437.16;;;13.07;67.59
45369;BME280;51342;55.250;37.668;2023-05-19T08:29:52;100441.00;;;13.13;68.32
45369;BME280;51342;55.250;37.668;2023-05-19T08:32:32;100446.28;;;13.15;67.37
45369;BME280;51342;55.250;37.668;2023-05-19T08:35:09;100447.28;;;13.17;67.75
45369;BME280;51342;55.250;37.668;2023-05-19T08:37:51;100436.78;;;13.15;67.53
45369;BME280;51342;55.250;37.668;2023-05-19T08:40:31;100430.38;;;13.23;67.87
45369;BME280;51342;55.250;37.668;2023-05-19T08:43:07;100444.41;;;13.12;68.05
45369;BME280;51342;55.250;37.668;2023-05-19T08:45:44;100442.38;;;13.36;67.48
45369;BME280;51342;55.250;37.668;2023-05-19T08:48:23;100442.81;;;13.44;66.37
45369;BME280;51342;55.250;37.668;2023-05-19T08:51:19;100445.41;;;13.44;66.45
45369;BME280;51342;55.250;37.668;2023-05-19T08:54:11;100435.19;;;13.47;66.35
45369;BME280;51342;55.250;37.668;2023-05-19T08:56:50;100435.53;;;13.53;65.65
45369;BME280;51342;55.250;37.668;2023-05-19T08:59:28;100432.03;;;13.67;65.38
45369;BME280;51342;55.250;37.668;2023-05-19T09:02:03;100429.22;;;13.79;65.35
45369;BME280;51342;55.250;37.668;2023-05-19T09:04:40;100435.66;;;13.86;64.27
45369;BME280;51342;55.250;37.668;2023-05-19T09:07:21;100422.47;;;13.83;64.43
45369;BME280;51342;55.250;37.668;2023-05-19T09:10:12;100427.94;;;13.87;64.07
45369;BME280;51342;55.250;37.668;2023-05-19T09:12:52;100422.03;;;13.90;64.46
45369;BME280;51342;55.250;37.668;2023-05-19T09:15:28;100427.63;;;13.97;64.38
45369;BME280;51342;55.250;37.668;2023-05-19T09:18:13;100413.91;;;14.16;65.05
45369;BME280;51342;55.250;37.668;2023-05-19T09:20:56;100418.44;;;14.35;64.44
45369;BME280;51342;55.250;37.668;2023-05-19T09:23:38;100423.56;;;14.50;63.17
45369;BME280;51342;55.250;37.668;2023-05-19T09:26:14;100422.03;;;14.53;62.46
45369;BME280;51342;55.250;37.668;2023-05-19T09:28:49;100417.88;;;14.57;62.11
45369;BME280;51342;55.250;37.668;2023-05-19T09:31:25;100418.63;;;14.54;62.08
45369;BME280;51342;55.250;37.668;2023-05-19T09:34:14;100418.69;;;14.56;61.91
45369;BME280;51342;55.250;37.668;2023-05-19T09:36:52;100419.19;;;14.65;61.27
45369;BME280;51342;55.250;37.668;2023-05-19T09:39:31;100411.19;;;14.78;61.09
45369;BME280;51342;55.250;37.668;2023-05-19T09:42:08;100406.28;;;14.84;60.42
45369;BME280;51342;55.250;37.668;2023-05-19T09:44:44;100416.69;;;15.01;60.76
45369;BME280;51342;55.250;37.668;2023-05-19T09:47:25;100397.13;;;15.09;60.15
45369;BME280;51342;55.250;37.668;2023-05-19T09:50:08;100405.16;;;15.14;59.48
45369;BME280;51342;55.250;37.668;2023-05-19T09:52:50;100397.28;;;15.12;59.43
45369;BME280;51342;55.250;37.668;2023-05-19T09:55:30;100403.84;;;15.22;60.28
45369;BME280;51342;55.250;37.668;2023-05-19T09:58:10;100400.13;;;15.34;59.93
45369;BME280;51342;55.250;37.668;2023-05-19T10:00:54;100400.41;;;15.58;60.20
45369;BME280;51342;55.250;37.668;2023-05-19T10:03:33;100399.31;;;15.71;58.40
45369;BME280;51342;55.250;37.668;2023-05-19T10:06:13;100401.25;;;15.75;57.27
45369;BME280;51342;55.250;37.668;2023-05-19T10:08:53;100403.03;;;15.76;56.66
45369;BME280;51342;55.250;37.668;2023-05-19T10:11:29;100400.31;;;15.73;56.52
45369;BME280;51342;55.250;37.668;2023-05-19T10:14:09;100405.53;;;15.73;57.36
45369;BME280;51342;55.250;37.668;2023-05-19T10:16:52;100391.50;;;15.71;56.73
45369;BME280;51342;55.250;37.668;2023-05-19T10:19:31;100393.31;;;15.72;56.90
45369;BME280;51342;55.250;37.668;2023-05-19T10:22:09;100395.22;;;15.76;57.76
45369;BME280;51342;55.250;37.668;2023-05-19T10:24:49;100395.66;;;15.85;57.10
45369;BME280;51342;55.250;37.668;2023-05-19T10:27:24;100395.31;;;15.78;57.85
45369;BME280;51342;55.250;37.668;2023-05-19T10:30:29;100387.41;;;16.13;59.41
45369;BME280;51342;55.250;37.668;2023-05-19T10:33:09;100378.75;;;16.53;58.57
45369;BME280;51342;55.250;37.668;2023-05-19T10:39:31;100389.88;;;16.88;54.35
45369;BME280;51342;55.250;37.668;2023-05-19T10:45:12;100387.69;;;16.78;52.28
45369;BME280;51342;55.250;37.668;2023-05-19T10:47:54;100382.19;;;16.72;50.00
45369;BME280;51342;55.250;37.668;2023-05-19T10:50:36;100376.50;;;16.80;49.32
45369;BME280;51342;55.250;37.668;2023-05-19T10:53:16;100376.59;;;17.03;50.35
45369;BME280;51342;55.250;37.668;2023-05-19T10:56:01;100374.19;;;17.30;50.39
45369;BME280;51342;55.250;37.668;2023-05-19T11:01:32;100364.38;;;17.45;46.72
45369;BME280;51342;55.250;37.668;2023-05-19T11:04:10;100361.66;;;17.42;47.39
45369;BME280;51342;55.250;37.668;2023-05-19T11:06:50;100362.19;;;17.56;48.90
45369;BME280;51342;55.250;37.668;2023-05-19T11:09:22;100365.41;;;17.71;47.53
45369;BME280;51342;55.250;37.668;2023-05-19T11:12:02;100356.84;;;17.75;47.88
45369;BME280;51342;55.250;37.668;2023-05-19T11:14:41;100350.31;;;17.86;48.73
45369;BME280;51342;55.250;37.668;2023-05-19T11:17:23;100357.81;;;17.99;49.12
45369;BME280;51342;55.250;37.668;2023-05-19T11:20:01;100353.81;;;18.09;48.92
45369;BME280;51342;55.250;37.668;2023-05-19T11:22:42;100360.25;;;18.17;48.03
45369;BME280;51342;55.250;37.668;2023-05-19T11:25:50;100374.94;;;18.14;45.66
45369;BME280;51342;55.250;37.668;2023-05-19T11:28:30;100364.41;;;18.12;44.13
45369;BME280;51342;55.250;37.668;2023-05-19T11:31:11;100370.59;;;18.14;43.76
45369;BME280;51342;55.250;37.668;2023-05-19T11:33:50;100363.53;;;18.12;44.41
45369;BME280;51342;55.250;37.668;2023-05-19T11:36:23;100366.38;;;18.18;44.24
45369;BME280;51342;55.250;37.668;2023-05-19T11:39:04;100372.50;;;18.18;43.58
45369;BME280;51342;55.250;37.668;2023-05-19T11:41:42;100359.44;;;18.20;44.46
45369;BME280;51342;55.250;37.668;2023-05-19T11:44:20;100367.31;;;18.20;45.28
45369;BME280;51342;55.250;37.668;2023-05-19T11:46:57;100365.53;;;18.19;41.52
45369;BME280;51342;55.250;37.668;2023-05-19T11:49:34;100358.28;;;18.12;41.69
45369;BME280;51342;55.250;37.668;2023-05-19T11:52:13;100359.22;;;18.14;42.88
45369;BME280;51342;55.250;37.668;2023-05-19T11:54:50;100360.28;;;18.19;41.01
45369;BME280;51342;55.250;37.668;2023-05-19T11:57:26;100359.56;;;18.23;43.11
45369;BME280;51342;55.250;37.668;2023-05-19T12:00:08;100358.06;;;18.30;41.79
45369;BME280;51342;55.250;37.668;2023-05-19T12:02:48;100372.06;;;18.30;41.01
45369;BME280;51342;55.250;37.668;2023-05-19T12:05:24;100365.13;;;18.32;42.29
45369;BME280;51342;55.250;37.668;2023-05-19T12:08:03;100361.75;;;18.35;42.71
45369;BME280;51342;55.250;37.668;2023-05-19T12:10:46;100374.00;;;18.36;40.04
45369;BME280;51342;55.250;37.668;2023-05-19T12:13:26;100377.03;;;18.22;40.02
45369;BME280;51342;55.250;37.668;2023-05-19T12:16:05;100374.94;;;18.14;39.97
45369;BME280;51342;55.250;37.668;2023-05-19T12:18:45;100374.94;;;18.14;39.95
45369;BME280;51342;55.250;37.668;2023-05-19T12:21:23;100365.25;;;18.11;40.84
45369;BME280;51342;55.250;37.668;2023-05-19T12:24:03;100366.22;;;18.15;39.69
45369;BME280;51342;55.250;37.668;2023-05-19T12:26:44;100380.16;;;18.14;38.64
45369;BME280;51342;55.250;37.668;2023-05-19T12:29:26;100371.00;;;18.02;38.59
45369;BME280;51342;55.250;37.668;2023-05-19T12:32:01;100375.19;;;17.97;38.99
45369;BME280;51342;55.250;37.668;2023-05-19T12:34:37;100381.38;;;17.99;40.28
45369;BME280;51342;55.250;37.668;2023-05-19T12:37:12;100370.84;;;17.98;38.59
45369;BME280;51342;55.250;37.668;2023-05-19T12:39:49;100376.25;;;18.02;39.54
45369;BME280;51342;55.250;37.668;2023-05-19T12:42:26;100365.28;;;18.13;41.55
45369;BME280;51342;55.250;37.668;2023-05-19T12:45:05;100367.44;;;18.23;39.97
45369;BME280;51342;55.250;37.668;2023-05-19T12:47:46;100357.66;;;18.19;39.82
45369;BME280;51342;55.250;37.668;2023-05-19T12:50:30;100365.44;;;18.16;39.01
45369;BME280;51342;55.250;37.668;2023-05-19T12:53:13;100360.94;;;18.13;40.05
45369;BME280;51342;55.250;37.668;2023-05-19T12:55:53;100366.31;;;18.16;39.68
45369;BME280;51342;55.250;37.668;2023-05-19T12:58:34;100361.78;;;18.12;38.09
45369;BME280;51342;55.250;37.668;2023-05-19T13:01:21;100361.75;;;18.11;40.83
45369;BME280;51342;55.250;37.668;2023-05-19T13:03:56;100361.84;;;18.14;39.42
45369;BME280;51342;55.250;37.668;2023-05-19T13:06:32;100356.56;;;18.12;38.65
45369;BME280;51342;55.250;37.668;2023-05-19T13:09:09;100360.66;;;18.06;38.00
45369;BME280;51342;55.250;37.668;2023-05-19T13:11:46;100368.47;;;18.04;39.43
45369;BME280;51342;55.250;37.668;2023-05-19T13:14:24;100364.94;;;18.04;38.69
45369;BME280;51342;55.250;37.668;2023-05-19T13:17:02;100364.94;;;18.04;39.47
45369;BME280;51342;55.250;37.668;2023-05-19T13:19:39;100365.78;;;18.02;38.18
45369;BME280;51342;55.250;37.668;2023-05-19T13:22:17;100370.97;;;18.01;38.77
45369;BME280;51342;55.250;37.668;2023-05-19T13:24:55;100371.00;;;18.02;39.25
45369;BME280;51342;55.250;37.668;2023-05-19T13:27:37;100372.97;;;18.08;39.86
45369;BME280;51342;55.250;37.668;2023-05-19T13:30:12;100374.94;;;18.14;41.87
45369;BME280;51342;55.250;37.668;2023-05-19T13:32:49;100369.66;;;18.12;41.09
45369;BME280;51342;55.250;37.668;2023-05-19T13:35:29;100371.31;;;18.10;40.77
45369;BME280;51342;55.250;37.668;2023-05-19T13:38:10;100372.31;;;18.14;41.80
45369;BME280;51342;55.250;37.668;2023-05-19T13:40:44;100369.88;;;18.18;42.98
45369;BME280;51342;55.250;37.668;2023-05-19T13:43:20;100372.63;;;18.21;42.76
45369;BME280;51342;55.250;37.668;2023-05-19T13:45:58;100369.69;;;18.14;40.34
45369;BME280;51342;55.250;37.668;2023-05-19T13:48:37;100375.59;;;18.08;38.74
45369;BME280;51342;55.250;37.668;2023-05-19T13:51:11;100370.44;;;18.10;38.45
45369;BME280;51342;55.250;37.668;2023-05-19T13:53:49;100373.84;;;18.09;39.01
45369;BME280;51342;55.250;37.668;2023-05-19T13:56:24;100361.75;;;18.11;37.52